Austin, NV

8:28 PM PDT on October 24, 2014 (GMT -0700)
RAWS AUSTIN NV US | Change Station
CLOSE
Current Station
Personal Weather Station
Location: Austin, NV
Elevation: 6310 ft
Nearby Weather Stations
Active Advisory: Wind Advisory Active Notice: Record Report

Elev 6310 ft 39.50 °N, 117.08 °W | Updated 38 minutes ago

Clear
Clear
65 °F
Feels Like 65 °F
N
11
Wind Variable Wind from SE
Gusts 23.0 mph

Today
High -- | Low -- °F
--% Chance of Precip.
Yesterday
High -- | Low -- °F
Precip. -- in
7:08 AM 5:56 PM
New Moon, 2% visible
Pressure 29.98 in
Visibility -9999.0 miles
Clouds
Dew Point 20 °F
Humidity 18%
Rainfall 0.00 in
Snow Depth Not available.
UV Not available.
Pollen 2.80 out of 12
Air Quality Not available.
Flu Activity No Activity
METAR KP68 250253Z AUTO 15011KT 17/M03 A3011 RMK AO1 SLP151 T01671033 53008

More Conditions Fewer Conditions

Pressure 29.98 in
Visibility -9999.0 miles
Clouds
Dew Point 20 °F
Humidity 18%
Rainfall 0.00 in
Snow Depth Not available.
UV Not available.
Pollen 2.80 out of 12
Air Quality Not available.
Flu Activity No Activity
METAR KP68 250253Z AUTO 15011KT 17/M03 A3011 RMK AO1 SLP151 T01671033 53008

More Conditions Fewer Conditions

10-Day Weather Forecast

Almanac

Astronomy

Oct. 24, 2014 Rise Set
Actual Time 7:08 AM PDT 5:56 PM PDT
Civil Twilight 6:41 AM PDT 6:24 PM PDT
Nautical Twilight 6:09 AM PDT 6:55 PM PDT
Astronomical Twilight 5:38 AM PDT 7:26 PM PDT
Moon 7:52 AM PDT (10/24) 6:39 PM PDT (10/24)
Length of Visible Light 11h 43m
Length of Day
10h 48m
Tomorrow will be 2m 24s shorter.
New Moon, 2% of the Moon is Illuminated
Today
New Moon
Oct 30
First Quarter
Nov 6
Full
Nov 14
Last Quarter
Nov 22
New

Today's Extremes

State Highs State Lows

Community

WunderPhotos

Upload Photos

1,764,769 photos uploaded!

Nearby

Snow Depth

Station Depth Elevation
Big Creek Summit 1 in 8700 ft
Lewis Peak 0 in 7400 ft
Diamond Peak 1 in 8000 ft
Corral Canyon 0 in 8500 ft
Lamoille #3 0 in 7700 ft

Earthquake Activity

City Distance Mag. Time & Date
No recent earthquake activity has been reported nearby.
Minimum magnitude displayed is 2.5.

Coastal Water Temperatures

Place Temperature
No Stations Reporting

Nearby Weather Stations